Sachse, Texas
Current Conditions -  °F | °C
As of 12:55 PM on Tuesday 27 Jan 2015 (Local Time) from KF46 Reporting Station
Clear Clear  
Wind Chill: 23°   Ceiling: Unl
Heat Index: 23°   Visibility: 10mi
Dew Point:   Wind: 0mph
Humidity: 31%   Direction: NA
Pressure: 30.14"   Gusts: NA
Location:  32.9674°N, 96.5785°W
Report Text: KF46 271855Z AUTO 00000KT 10SM CLR 23/05 A3014 RMK AO2 T02290051
Loading
Personal Weather Stations






























Interactive Weather Map New forecast layout! Learn more

10-Day Weather Forecast

Advertisements
Track Severe Weather on mobile